createdAt,value
2023-03-15T00:00:49.947Z,5.52
2023-03-15T00:01:36.840Z,5.58
2023-03-15T00:02:12.007Z,5.55
2023-03-15T00:02:58.920Z,5.68
2023-03-15T00:03:43.956Z,5.62
2023-03-15T00:04:38.897Z,5.86
2023-03-15T00:05:32.860Z,5.52
2023-03-15T00:06:27.854Z,5.50
2023-03-15T00:07:21.843Z,5.50
2023-03-15T00:08:15.881Z,5.44
2023-03-15T00:09:02.910Z,5.62
2023-03-15T00:09:37.010Z,5.58
2023-03-15T00:10:23.848Z,5.51
2023-03-15T00:10:58.036Z,5.38
2023-03-15T00:11:44.850Z,5.49
2023-03-15T00:12:19.045Z,5.31
2023-03-15T00:13:05.866Z,5.43
2023-03-15T00:13:39.967Z,5.46
2023-03-15T00:14:27.887Z,5.36
2023-03-15T00:15:01.965Z,5.32
2023-03-15T00:15:56.987Z,5.36
2023-03-15T00:16:32.737Z,5.49
2023-03-15T00:17:21.992Z,5.37
2023-03-15T00:17:56.285Z,5.35
2023-03-15T00:18:43.838Z,5.48
2023-03-15T00:19:17.995Z,5.50
2023-03-15T00:19:57.843Z,5.50
2023-03-15T00:20:38.991Z,5.42
2023-03-15T00:21:19.834Z,5.36
2023-03-15T00:22:00.501Z,5.50
2023-03-15T00:22:41.906Z,5.47
2023-03-15T00:23:23.966Z,5.51
2023-03-15T00:24:04.846Z,5.44
2023-03-15T00:24:45.207Z,5.47
2023-03-15T00:25:25.897Z,5.48
2023-03-15T00:26:05.967Z,5.33
2023-03-15T00:26:46.848Z,5.50
2023-03-15T00:27:26.948Z,5.55
2023-03-15T00:28:06.848Z,5.49
2023-03-15T00:28:46.950Z,5.45
2023-03-15T00:29:27.870Z,5.50
2023-03-15T00:30:07.954Z,5.57
2023-03-15T00:30:48.927Z,5.52
2023-03-15T00:31:31.969Z,5.44
2023-03-15T00:32:12.838Z,5.44
2023-03-15T00:32:53.920Z,5.29
2023-03-15T00:33:34.899Z,5.22
2023-03-15T00:34:15.179Z,5.31
2023-03-15T00:34:55.872Z,5.52
2023-03-15T00:35:35.949Z,5.47
2023-03-15T00:36:17.871Z,5.30
2023-03-15T00:36:57.928Z,5.47
2023-03-15T00:37:38.849Z,5.47
2023-03-15T00:38:19.954Z,5.46
2023-03-15T00:39:02.824Z,5.31
2023-03-15T00:39:45.375Z,5.44
2023-03-15T00:40:26.828Z,5.50
2023-03-15T00:41:28.847Z,5.53
2023-03-15T00:42:22.848Z,5.48
2023-03-15T00:43:17.908Z,5.45
2023-03-15T00:44:11.835Z,5.34
2023-03-15T00:45:05.816Z,5.39
2023-03-15T00:45:59.822Z,5.49
2023-03-15T00:46:46.889Z,5.59
2023-03-15T00:47:21.942Z,5.44
2023-03-15T00:48:08.816Z,5.52
2023-03-15T00:48:42.993Z,5.44
2023-03-15T00:49:29.834Z,5.53
2023-03-15T00:50:03.968Z,5.42
2023-03-15T00:50:50.808Z,5.40
2023-03-15T00:51:30.332Z,5.38
2023-03-15T00:52:10.838Z,5.23
2023-03-15T00:52:51.088Z,5.44
2023-03-15T00:53:31.843Z,5.41
2023-03-15T00:54:13.782Z,5.26
2023-03-15T00:55:01.827Z,5.38
2023-03-15T00:55:43.168Z,5.25
2023-03-15T00:56:29.830Z,5.25
2023-03-15T00:57:09.925Z,5.11
2023-03-15T00:57:51.843Z,5.26
2023-03-15T00:58:31.895Z,5.35
2023-03-15T00:59:12.802Z,5.12
2023-03-15T00:59:53.185Z,5.22
2023-03-15T01:00:33.807Z,5.31
2023-03-15T01:01:23.981Z,5.28
2023-03-15T01:02:03.868Z,5.25
2023-03-15T01:02:44.009Z,5.20
2023-03-15T01:03:24.825Z,5.27
2023-03-15T01:04:04.936Z,5.11
2023-03-15T01:04:45.806Z,5.18
2023-03-15T01:05:26.415Z,5.03
2023-03-15T01:06:22.789Z,5.09
2023-03-15T01:07:02.896Z,5.11
2023-03-15T01:07:43.777Z,4.97
2023-03-15T01:08:24.183Z,4.98
2023-03-15T01:09:04.836Z,4.87
2023-03-15T01:09:46.344Z,5.23
2023-03-15T01:10:27.806Z,5.10
2023-03-15T01:11:12.920Z,4.99
2023-03-15T01:11:53.811Z,5.11
2023-03-15T01:12:35.943Z,5.12
2023-03-15T01:13:15.776Z,5.04
2023-03-15T01:13:56.899Z,5.11
2023-03-15T01:14:37.825Z,5.13
2023-03-15T01:15:20.899Z,5.17
2023-03-15T01:16:01.831Z,4.98
2023-03-15T01:16:41.904Z,5.13
2023-03-15T01:17:21.769Z,5.04
2023-03-15T01:18:02.957Z,5.15
2023-03-15T01:18:44.769Z,4.89
2023-03-15T01:19:24.860Z,5.13
2023-03-15T01:20:06.786Z,5.08
2023-03-15T01:20:49.885Z,5.11
2023-03-15T01:21:30.797Z,5.08
2023-03-15T01:22:10.904Z,5.00
2023-03-15T01:22:50.778Z,4.83
2023-03-15T01:23:30.870Z,5.07
2023-03-15T01:24:11.768Z,5.10
2023-03-15T01:24:51.862Z,5.14
2023-03-15T01:25:31.834Z,5.13
2023-03-15T01:26:14.903Z,5.22
2023-03-15T01:26:55.754Z,5.22
2023-03-15T01:27:35.910Z,5.20
2023-03-15T01:28:16.793Z,5.13
2023-03-15T01:28:56.877Z,5.22
2023-03-15T01:29:36.776Z,5.07
2023-03-15T01:30:17.859Z,5.29
2023-03-15T01:30:59.952Z,5.13
2023-03-15T01:31:40.924Z,5.15
2023-03-15T01:32:21.821Z,5.22
2023-03-15T01:33:01.884Z,5.10
2023-03-15T01:33:42.780Z,5.16
2023-03-15T01:34:22.869Z,5.19
2023-03-15T01:35:03.768Z,5.29
2023-03-15T01:35:43.907Z,5.38
2023-03-15T01:36:24.776Z,5.35
2023-03-15T01:37:04.862Z,5.03
2023-03-15T01:37:44.748Z,5.18
2023-03-15T01:38:24.859Z,5.25
2023-03-15T01:39:04.739Z,5.30
2023-03-15T01:39:44.854Z,5.27
2023-03-15T01:40:25.777Z,5.18
2023-03-15T01:41:06.909Z,5.14
2023-03-15T01:41:46.775Z,5.27
2023-03-15T01:42:26.865Z,5.30
2023-03-15T01:43:12.745Z,5.44
2023-03-15T01:43:53.849Z,5.26
2023-03-15T01:44:58.735Z,5.41
2023-03-15T01:46:15.774Z,5.41
2023-03-15T01:46:56.810Z,5.33
2023-03-15T01:47:32.737Z,5.38
2023-03-15T01:48:19.760Z,5.37
2023-03-15T01:49:14.307Z,5.39
2023-03-15T01:50:16.738Z,5.41
2023-03-15T01:50:50.919Z,5.22
2023-03-15T01:52:05.789Z,5.18
2023-03-15T01:52:42.007Z,5.32
2023-03-15T01:53:29.752Z,5.16
2023-03-15T01:54:07.435Z,5.31
2023-03-15T01:55:06.777Z,5.13
2023-03-15T01:55:41.167Z,5.23
2023-03-15T01:56:28.746Z,5.14
2023-03-15T01:57:23.756Z,5.26
2023-03-15T01:58:06.876Z,5.29
2023-03-15T01:58:49.728Z,5.36
2023-03-15T01:59:55.902Z,5.45
2023-03-15T02:00:35.765Z,5.34
2023-03-15T02:01:16.880Z,5.41
2023-03-15T02:02:00.808Z,5.23
2023-03-15T02:02:47.757Z,5.20
2023-03-15T02:03:31.078Z,5.37
2023-03-15T02:04:22.733Z,5.30
2023-03-15T02:05:06.798Z,5.36
2023-03-15T02:06:00.720Z,5.24
2023-03-15T02:06:34.978Z,5.40
2023-03-15T02:07:22.726Z,5.41
2023-03-15T02:08:03.770Z,5.53
2023-03-15T02:08:48.972Z,5.46
2023-03-15T02:09:28.716Z,5.47
2023-03-15T02:10:25.873Z,5.53
2023-03-15T02:11:09.765Z,5.40
2023-03-15T02:11:50.833Z,5.35
2023-03-15T02:12:30.700Z,5.30
2023-03-15T02:13:18.750Z,5.19
2023-03-15T02:13:54.213Z,5.38
2023-03-15T02:14:41.721Z,5.25
2023-03-15T02:15:15.507Z,5.24
2023-03-15T02:16:03.779Z,5.34
2023-03-15T02:16:38.499Z,5.31
2023-03-15T02:17:26.701Z,5.21
2023-03-15T02:18:00.504Z,5.18
2023-03-15T02:18:42.731Z,5.14
2023-03-15T02:19:51.231Z,5.31
2023-03-15T02:21:04.281Z,5.26
2023-03-15T02:22:04.708Z,5.31
2023-03-15T02:23:04.831Z,5.15
2023-03-15T02:23:38.584Z,5.21
2023-03-15T02:24:50.732Z,5.32
2023-03-15T02:25:43.815Z,5.37
2023-03-15T02:26:38.252Z,5.44
2023-03-15T02:27:18.763Z,5.54
2023-03-15T02:27:52.858Z,5.32
2023-03-15T02:28:27.319Z,5.41
2023-03-15T02:29:08.699Z,5.52
2023-03-15T02:29:42.787Z,5.42
2023-03-15T02:30:24.748Z,5.36
2023-03-15T02:31:05.930Z,5.14
2023-03-15T02:31:45.700Z,5.04
2023-03-15T02:32:25.888Z,5.11
2023-03-15T02:33:09.709Z,5.12
2023-03-15T02:33:55.729Z,5.20
2023-03-15T02:34:35.702Z,5.19
2023-03-15T02:35:16.796Z,5.26
2023-03-15T02:35:57.738Z,5.30
2023-03-15T02:36:37.825Z,5.22
2023-03-15T02:37:17.693Z,5.16
2023-03-15T02:37:57.769Z,5.17
2023-03-15T02:38:37.697Z,5.19
2023-03-15T02:39:25.465Z,5.12
2023-03-15T02:40:05.722Z,5.00
2023-03-15T02:40:46.787Z,5.01
2023-03-15T02:41:41.721Z,5.07
2023-03-15T02:42:24.092Z,5.11
2023-03-15T02:43:09.683Z,5.25
2023-03-15T02:43:49.765Z,5.02
2023-03-15T02:44:39.681Z,5.10
2023-03-15T02:45:20.799Z,5.05
2023-03-15T02:46:01.723Z,5.10
2023-03-15T02:46:50.729Z,5.04
2023-03-15T02:47:30.408Z,5.06
2023-03-15T02:48:19.693Z,5.03
2023-03-15T02:48:54.425Z,5.10
2023-03-15T02:49:44.683Z,5.00
2023-03-15T02:50:18.603Z,5.17
2023-03-15T02:51:05.672Z,5.17
2023-03-15T02:51:39.445Z,5.15
2023-03-15T02:52:20.732Z,5.10
2023-03-15T02:52:54.783Z,5.22
2023-03-15T02:53:31.020Z,5.17
2023-03-15T02:54:10.680Z,4.96
2023-03-15T02:54:44.820Z,5.24
2023-03-15T02:55:19.451Z,5.16
2023-03-15T02:55:59.679Z,5.37
2023-03-15T02:56:33.761Z,5.23
2023-03-15T02:57:07.606Z,5.32
2023-03-15T02:57:47.688Z,5.30
2023-03-15T02:58:21.768Z,5.25
2023-03-15T02:58:57.513Z,5.05
2023-03-15T02:59:37.691Z,5.05
2023-03-15T03:00:15.417Z,5.17
2023-03-15T03:00:49.500Z,4.93
2023-03-15T03:01:29.699Z,5.11
2023-03-15T03:02:03.772Z,5.01
2023-03-15T03:02:38.765Z,4.94
2023-03-15T03:03:18.684Z,4.89
2023-03-15T03:03:54.752Z,5.10
2023-03-15T03:04:28.474Z,4.79
2023-03-15T03:05:08.680Z,5.00
2023-03-15T03:05:42.772Z,4.94
2023-03-15T03:06:29.673Z,4.92
2023-03-15T03:07:03.765Z,5.04
2023-03-15T03:07:51.665Z,5.10
2023-03-15T03:08:32.705Z,5.05
2023-03-15T03:09:26.654Z,5.08
2023-03-15T03:10:21.666Z,5.13
2023-03-15T03:11:15.642Z,5.21
2023-03-15T03:12:09.703Z,5.24
2023-03-15T03:13:03.669Z,5.04
2023-03-15T03:13:50.721Z,4.80
2023-03-15T03:14:24.753Z,4.89
2023-03-15T03:15:13.708Z,5.07
2023-03-15T03:15:47.754Z,5.06
2023-03-15T03:16:34.679Z,5.13
2023-03-15T03:17:08.740Z,4.88
2023-03-15T03:17:55.655Z,4.93
2023-03-15T03:18:29.933Z,5.09
2023-03-15T03:19:10.689Z,4.97
2023-03-15T03:19:52.550Z,5.02
2023-03-15T03:20:33.654Z,5.20
2023-03-15T03:21:14.785Z,4.95
2023-03-15T03:21:54.644Z,5.01
2023-03-15T03:22:34.739Z,4.84
2023-03-15T03:23:15.649Z,4.79
2023-03-15T03:23:55.738Z,4.92
2023-03-15T03:24:35.677Z,5.03
2023-03-15T03:25:16.823Z,4.82
2023-03-15T03:25:56.713Z,4.94
2023-03-15T03:26:37.694Z,4.88
2023-03-15T03:27:21.660Z,5.00
2023-03-15T03:28:03.882Z,4.92
2023-03-15T03:28:43.636Z,4.99
2023-03-15T03:29:23.731Z,4.93
2023-03-15T03:30:05.666Z,4.74
2023-03-15T03:30:45.850Z,4.86
2023-03-15T03:31:29.662Z,5.01
2023-03-15T03:32:10.896Z,4.79
2023-03-15T03:32:50.686Z,5.11
2023-03-15T03:33:31.743Z,5.11
2023-03-15T03:34:12.620Z,4.91
2023-03-15T03:34:52.729Z,4.79
2023-03-15T03:35:33.727Z,4.89
2023-03-15T03:36:13.748Z,4.75
2023-03-15T03:36:54.866Z,4.94
2023-03-15T03:37:35.780Z,5.00
2023-03-15T03:38:17.634Z,5.02
2023-03-15T03:38:57.812Z,5.17
2023-03-15T03:39:37.632Z,4.97
2023-03-15T03:40:18.729Z,4.85
2023-03-15T03:40:58.651Z,4.89
2023-03-15T03:41:38.734Z,4.99
2023-03-15T03:42:20.616Z,4.98
2023-03-15T03:43:00.748Z,5.20
2023-03-15T03:43:41.681Z,5.27
2023-03-15T03:44:22.735Z,5.14
2023-03-15T03:45:02.631Z,5.30
2023-03-15T03:45:43.829Z,5.21
2023-03-15T03:46:24.712Z,5.18
2023-03-15T03:47:04.714Z,5.08
2023-03-15T03:47:44.616Z,5.16
2023-03-15T03:48:24.697Z,5.24
2023-03-15T03:49:04.630Z,5.32
2023-03-15T03:49:44.699Z,5.20
2023-03-15T03:50:25.620Z,5.22
2023-03-15T03:51:05.715Z,5.13
2023-03-15T03:51:45.654Z,5.10
2023-03-15T03:52:25.725Z,5.18
2023-03-15T03:53:05.607Z,5.30
2023-03-15T03:53:45.713Z,5.33
2023-03-15T03:54:29.617Z,5.33
2023-03-15T03:55:09.732Z,5.34
2023-03-15T03:55:49.599Z,5.25
2023-03-15T03:56:29.704Z,5.38
2023-03-15T03:57:10.632Z,5.24
2023-03-15T03:57:50.716Z,5.22
2023-03-15T03:58:31.625Z,5.22
2023-03-15T03:59:11.722Z,5.18
2023-03-15T03:59:51.608Z,5.11
2023-03-15T04:00:31.688Z,5.18
2023-03-15T04:01:12.622Z,5.18
2023-03-15T04:01:52.680Z,5.29
2023-03-15T04:02:33.668Z,5.49
2023-03-15T04:03:14.711Z,5.40
2023-03-15T04:03:58.607Z,5.35
2023-03-15T04:04:41.277Z,5.31
2023-03-15T04:05:22.599Z,5.40
2023-03-15T04:05:57.912Z,5.39
2023-03-15T04:06:45.749Z,5.38
2023-03-15T04:07:19.399Z,5.32
2023-03-15T04:08:00.608Z,5.37
2023-03-15T04:08:34.706Z,5.39
2023-03-15T04:09:08.536Z,5.34
2023-03-15T04:09:49.596Z,5.40
2023-03-15T04:10:26.743Z,5.48
2023-03-15T04:11:03.899Z,5.57
2023-03-15T04:11:43.595Z,5.40
2023-03-15T04:12:17.773Z,5.54
2023-03-15T04:12:51.338Z,5.47
2023-03-15T04:13:32.611Z,5.57
2023-03-15T04:14:06.734Z,5.58
2023-03-15T04:14:40.368Z,5.47
2023-03-15T04:15:21.578Z,5.60
2023-03-15T04:15:57.654Z,5.55
2023-03-15T04:16:31.367Z,5.58
2023-03-15T04:17:12.602Z,5.60
2023-03-15T04:17:46.738Z,5.60
2023-03-15T04:18:21.658Z,5.57
2023-03-15T04:19:02.625Z,5.49
2023-03-15T04:19:46.774Z,5.54
2023-03-15T04:20:28.595Z,5.35
2023-03-15T04:21:10.696Z,5.32
2023-03-15T04:21:53.566Z,5.24
2023-03-15T04:22:34.941Z,5.16
2023-03-15T04:23:15.583Z,5.13
2023-03-15T04:23:55.677Z,5.19
2023-03-15T04:24:35.629Z,5.20
2023-03-15T04:25:16.733Z,5.20
2023-03-15T04:25:59.573Z,5.32
2023-03-15T04:26:39.698Z,5.22
2023-03-15T04:27:21.573Z,5.14
2023-03-15T04:28:02.985Z,5.14
2023-03-15T04:28:44.568Z,5.18
2023-03-15T04:29:24.665Z,5.28
2023-03-15T04:30:05.852Z,5.15
2023-03-15T04:30:46.441Z,5.20
2023-03-15T04:31:27.671Z,5.25
2023-03-15T04:32:07.663Z,5.13
2023-03-15T04:32:48.603Z,5.33
2023-03-15T04:33:28.675Z,5.25
2023-03-15T04:34:11.568Z,5.17
2023-03-15T04:34:51.694Z,4.98
2023-03-15T04:35:37.693Z,5.03
2023-03-15T04:36:20.542Z,5.00
2023-03-15T04:37:01.586Z,4.90
2023-03-15T04:37:42.448Z,5.12
2023-03-15T04:38:22.590Z,4.98
2023-03-15T04:39:05.867Z,4.99
2023-03-15T04:39:45.586Z,5.05
2023-03-15T04:40:26.683Z,5.21
2023-03-15T04:41:06.571Z,5.19
2023-03-15T04:41:46.642Z,5.04
2023-03-15T04:42:27.545Z,5.12
2023-03-15T04:43:10.745Z,5.12
2023-03-15T04:43:51.580Z,5.05
2023-03-15T04:44:31.664Z,5.15
2023-03-15T04:45:12.562Z,5.04
2023-03-15T04:45:52.743Z,5.11
2023-03-15T04:46:33.587Z,5.11
2023-03-15T04:47:13.798Z,5.11
2023-03-15T04:47:53.564Z,4.96
2023-03-15T04:48:33.650Z,5.13
2023-03-15T04:49:13.580Z,4.98
2023-03-15T04:49:53.647Z,4.95
2023-03-15T04:50:36.567Z,5.05
2023-03-15T04:51:16.743Z,5.07
2023-03-15T04:51:56.604Z,4.86
2023-03-15T04:52:36.682Z,5.06
2023-03-15T04:53:16.555Z,4.86
2023-03-15T04:53:56.640Z,4.92
2023-03-15T04:54:37.551Z,4.81
2023-03-15T04:55:17.629Z,4.80
2023-03-15T04:55:57.557Z,5.00
2023-03-15T04:56:37.743Z,4.72
2023-03-15T04:57:17.583Z,4.61
2023-03-15T04:57:58.338Z,4.82
2023-03-15T04:58:38.567Z,4.89
2023-03-15T04:59:18.654Z,4.65
2023-03-15T04:59:58.542Z,4.81
2023-03-15T05:00:38.798Z,4.76
2023-03-15T05:01:19.541Z,4.87
2023-03-15T05:01:59.739Z,4.90
2023-03-15T05:02:42.597Z,4.94
2023-03-15T05:03:22.693Z,4.92
2023-03-15T05:04:03.550Z,5.05
2023-03-15T05:04:43.634Z,4.75
2023-03-15T05:05:23.554Z,4.71
2023-03-15T05:06:08.032Z,4.73
2023-03-15T05:06:48.539Z,4.52
2023-03-15T05:07:28.625Z,4.46
2023-03-15T05:08:15.588Z,4.72
2023-03-15T05:08:49.779Z,4.71
2023-03-15T05:09:44.548Z,4.64
2023-03-15T05:10:18.725Z,4.79
2023-03-15T05:11:05.557Z,4.61
2023-03-15T05:11:39.638Z,4.59
2023-03-15T05:12:26.532Z,4.52
2023-03-15T05:13:00.660Z,4.71
2023-03-15T05:13:40.556Z,4.61
2023-03-15T05:14:20.785Z,4.57
2023-03-15T05:15:01.584Z,4.57
2023-03-15T05:15:41.705Z,4.54
2023-03-15T05:16:22.570Z,4.45
2023-03-15T05:17:03.946Z,4.47
2023-03-15T05:17:44.544Z,4.51
2023-03-15T05:18:24.701Z,4.42
2023-03-15T05:19:05.570Z,4.56
2023-03-15T05:19:46.173Z,4.64
2023-03-15T05:20:27.510Z,4.71
2023-03-15T05:21:07.610Z,4.35
2023-03-15T05:21:47.552Z,4.39
2023-03-15T05:22:27.641Z,4.57
2023-03-15T05:23:08.541Z,4.47
2023-03-15T05:23:48.716Z,4.64
2023-03-15T05:24:29.551Z,4.71
2023-03-15T05:25:10.099Z,4.60
2023-03-15T05:25:55.542Z,4.61
2023-03-15T05:26:35.639Z,4.59
2023-03-15T05:27:18.517Z,4.79
2023-03-15T05:27:58.636Z,4.46
2023-03-15T05:28:38.558Z,4.68
2023-03-15T05:29:19.629Z,4.75
2023-03-15T05:29:59.556Z,4.80
2023-03-15T05:30:39.623Z,4.67
2023-03-15T05:31:20.562Z,4.75
2023-03-15T05:32:04.318Z,4.69
2023-03-15T05:32:46.569Z,4.59
2023-03-15T05:33:27.672Z,4.64
2023-03-15T05:34:10.539Z,4.57
2023-03-15T05:34:50.646Z,4.52
2023-03-15T05:35:33.563Z,4.50
2023-03-15T05:36:15.358Z,4.69
2023-03-15T05:36:58.523Z,4.46
2023-03-15T05:37:38.654Z,4.79
2023-03-15T05:38:22.497Z,4.61
2023-03-15T05:39:03.254Z,4.69
2023-03-15T05:39:44.513Z,4.58
2023-03-15T05:40:25.592Z,4.52
2023-03-15T05:41:05.546Z,4.46
2023-03-15T05:41:45.645Z,4.50
2023-03-15T05:42:31.523Z,4.70
2023-03-15T05:43:11.648Z,4.63
2023-03-15T05:43:52.544Z,4.71
2023-03-15T05:44:32.586Z,4.59
2023-03-15T05:45:14.508Z,4.62
2023-03-15T05:45:54.624Z,4.79
2023-03-15T05:46:34.522Z,4.58
2023-03-15T05:47:14.589Z,4.50
2023-03-15T05:47:55.502Z,4.72
2023-03-15T05:48:35.608Z,4.73
2023-03-15T05:49:16.512Z,4.69
2023-03-15T05:49:56.612Z,4.62
2023-03-15T05:50:37.535Z,4.66
2023-03-15T05:51:17.611Z,4.73
2023-03-15T05:51:58.528Z,4.69
2023-03-15T05:52:38.587Z,4.71
2023-03-15T05:53:19.490Z,4.76
2023-03-15T05:53:59.566Z,4.84
2023-03-15T05:54:40.493Z,4.82
2023-03-15T05:55:20.636Z,4.66
2023-03-15T05:56:01.507Z,4.89
2023-03-15T05:56:41.597Z,4.72
2023-03-15T05:57:22.531Z,4.76
2023-03-15T05:58:02.560Z,4.79
2023-03-15T05:58:43.484Z,4.80
2023-03-15T05:59:23.571Z,4.86
2023-03-15T06:00:04.499Z,4.82
2023-03-15T06:00:44.599Z,4.82
2023-03-15T06:01:25.484Z,4.84
2023-03-15T06:02:05.608Z,4.74
2023-03-15T06:02:45.545Z,4.78
2023-03-15T06:03:25.632Z,4.45
2023-03-15T06:04:06.489Z,4.75
2023-03-15T06:04:46.553Z,4.68
2023-03-15T06:05:27.458Z,4.62
2023-03-15T06:06:07.573Z,4.82
2023-03-15T06:06:48.492Z,4.64
2023-03-15T06:07:28.630Z,4.60
2023-03-15T06:08:09.512Z,4.69
2023-03-15T06:08:49.611Z,4.80
2023-03-15T06:09:29.525Z,4.82
2023-03-15T06:10:11.192Z,4.83
2023-03-15T06:10:52.475Z,4.68
2023-03-15T06:11:32.592Z,4.79
2023-03-15T06:12:13.461Z,4.83
2023-03-15T06:12:53.550Z,4.81
2023-03-15T06:13:34.477Z,4.73
2023-03-15T06:14:14.674Z,4.98
2023-03-15T06:14:54.463Z,4.98
2023-03-15T06:15:34.664Z,5.11
2023-03-15T06:16:15.496Z,4.83
2023-03-15T06:16:55.685Z,4.94
2023-03-15T06:17:35.484Z,4.90
2023-03-15T06:18:17.356Z,4.95
2023-03-15T06:18:58.464Z,5.01
2023-03-15T06:19:38.615Z,5.05
2023-03-15T06:20:19.513Z,4.95
2023-03-15T06:20:59.553Z,4.95
2023-03-15T06:21:40.465Z,4.96
2023-03-15T06:22:20.757Z,4.86
2023-03-15T06:23:00.469Z,4.96
2023-03-15T06:23:40.565Z,4.97
2023-03-15T06:24:21.515Z,5.15
2023-03-15T06:25:15.463Z,4.95
2023-03-15T06:26:09.458Z,5.04
2023-03-15T06:27:03.491Z,5.08
2023-03-15T06:27:57.452Z,4.87
2023-03-15T06:28:51.476Z,5.02
2023-03-15T06:29:38.473Z,4.89
2023-03-15T06:30:15.914Z,4.90
2023-03-15T06:31:03.535Z,5.06
2023-03-15T06:31:37.556Z,4.93
2023-03-15T06:32:25.498Z,4.83
2023-03-15T06:32:59.665Z,4.84
2023-03-15T06:33:47.463Z,4.97
2023-03-15T06:34:21.554Z,4.79
2023-03-15T06:35:02.475Z,4.82
2023-03-15T06:35:42.736Z,4.83
2023-03-15T06:36:22.463Z,4.86
2023-03-15T06:37:03.253Z,4.78
2023-03-15T06:37:45.447Z,4.97
2023-03-15T06:38:25.569Z,5.02
2023-03-15T06:39:05.429Z,4.93
2023-03-15T06:39:46.599Z,4.86
2023-03-15T06:40:27.479Z,5.07
2023-03-15T06:41:08.542Z,4.93
2023-03-15T06:41:49.446Z,4.97
2023-03-15T06:42:29.531Z,4.82
2023-03-15T06:43:12.446Z,4.90
2023-03-15T06:43:52.523Z,4.92
2023-03-15T06:44:32.421Z,4.98
2023-03-15T06:45:16.386Z,4.99
2023-03-15T06:45:57.526Z,4.87
2023-03-15T06:46:37.619Z,4.74
2023-03-15T06:47:18.432Z,4.86
2023-03-15T06:47:58.533Z,4.87
2023-03-15T06:48:39.449Z,4.74
2023-03-15T06:49:20.555Z,4.74
2023-03-15T06:50:00.420Z,4.92
2023-03-15T06:50:46.803Z,4.84
2023-03-15T06:51:28.447Z,4.94
2023-03-15T06:52:09.583Z,4.91
2023-03-15T06:52:50.466Z,4.85
2023-03-15T06:53:30.834Z,4.76
2023-03-15T06:54:10.432Z,4.68
2023-03-15T06:54:50.659Z,4.81
2023-03-15T06:55:31.444Z,4.92
2023-03-15T06:56:11.561Z,4.89
2023-03-15T06:56:52.448Z,4.75
2023-03-15T06:57:32.613Z,4.90
2023-03-15T06:58:13.431Z,4.82
2023-03-15T06:58:53.568Z,4.89
2023-03-15T06:59:33.434Z,4.86
2023-03-15T07:00:17.106Z,4.85
2023-03-15T07:00:58.423Z,4.84
2023-03-15T07:01:38.611Z,4.84
2023-03-15T07:03:27.451Z,4.96
2023-03-15T07:04:01.506Z,4.93
2023-03-15T07:04:49.429Z,4.71
2023-03-15T07:05:23.519Z,4.74
2023-03-15T07:06:11.441Z,4.87
2023-03-15T07:06:45.560Z,4.83
2023-03-15T07:07:32.430Z,4.76
2023-03-15T07:08:06.583Z,4.86
2023-03-15T07:08:47.439Z,4.74
2023-03-15T07:09:27.521Z,4.87
2023-03-15T07:10:07.412Z,4.77
2023-03-15T07:10:48.335Z,5.09
2023-03-15T07:11:29.395Z,5.06
2023-03-15T07:12:10.911Z,4.92
2023-03-15T07:12:51.416Z,4.90
2023-03-15T07:13:31.515Z,4.92
2023-03-15T07:14:12.459Z,5.09
2023-03-15T07:14:52.513Z,4.99
2023-03-15T07:15:33.420Z,4.97
2023-03-15T07:16:13.570Z,4.90
2023-03-15T07:16:55.389Z,4.81
2023-03-15T07:17:35.521Z,4.91
2023-03-15T07:18:16.419Z,4.93
2023-03-15T07:18:56.594Z,4.78
2023-03-15T07:19:46.824Z,4.76
2023-03-15T07:20:37.382Z,4.89
2023-03-15T07:21:18.412Z,4.57
2023-03-15T07:21:58.518Z,4.53
2023-03-15T07:22:40.419Z,4.73
2023-03-15T07:23:20.549Z,4.77
2023-03-15T07:24:01.393Z,4.87
2023-03-15T07:24:48.561Z,4.81
2023-03-15T07:25:54.366Z,4.95
2023-03-15T07:26:49.432Z,4.72
2023-03-15T07:27:43.406Z,4.87
2023-03-15T07:28:39.390Z,4.94
2023-03-15T07:29:33.386Z,4.86
2023-03-15T07:30:16.413Z,4.66
2023-03-15T07:31:14.600Z,4.68
2023-03-15T07:31:55.432Z,4.89
2023-03-15T07:32:35.771Z,4.72
2023-03-15T07:33:16.445Z,4.64
2023-03-15T07:33:56.513Z,4.76
2023-03-15T07:34:37.397Z,4.67
2023-03-15T07:35:25.406Z,4.76
2023-03-15T07:36:21.395Z,4.83
2023-03-15T07:37:15.377Z,4.82
2023-03-15T07:38:09.381Z,4.76
2023-03-15T07:39:09.529Z,4.69
2023-03-15T07:40:04.510Z,4.63
2023-03-15T07:40:45.411Z,4.65
2023-03-15T07:41:25.493Z,4.66
2023-03-15T07:42:07.776Z,4.79
2023-03-15T07:42:49.467Z,4.84
2023-03-15T07:43:30.385Z,4.93
2023-03-15T07:44:14.518Z,4.91
2023-03-15T07:44:55.393Z,4.64
2023-03-15T07:45:36.556Z,4.92
2023-03-15T07:46:24.664Z,4.91
2023-03-15T07:46:58.572Z,4.73
2023-03-15T07:47:45.385Z,4.70
2023-03-15T07:48:19.488Z,4.80
2023-03-15T07:49:00.588Z,4.81
2023-03-15T07:49:41.355Z,4.75
2023-03-15T07:50:21.480Z,4.86
2023-03-15T07:51:02.350Z,4.82
2023-03-15T07:51:49.417Z,4.83
2023-03-15T07:52:24.115Z,5.04
2023-03-15T07:53:12.462Z,5.06
2023-03-15T07:53:46.177Z,4.94
2023-03-15T07:54:35.386Z,4.88
2023-03-15T07:55:09.887Z,5.03
2023-03-15T07:55:56.371Z,5.04
2023-03-15T07:56:30.188Z,4.96
2023-03-15T07:57:11.364Z,4.87
2023-03-15T07:57:45.916Z,4.88
2023-03-15T07:58:20.541Z,4.90
2023-03-15T07:59:00.360Z,5.01
2023-03-15T07:59:34.452Z,4.96
2023-03-15T08:00:09.197Z,5.20
2023-03-15T08:00:50.352Z,5.25
2023-03-15T08:01:24.447Z,5.18
2023-03-15T08:02:00.754Z,5.06
2023-03-15T08:02:41.376Z,5.17
2023-03-15T08:03:15.560Z,5.04
2023-03-15T08:03:49.173Z,4.90
2023-03-15T08:04:30.364Z,4.93
2023-03-15T08:05:04.591Z,5.03
2023-03-15T08:05:38.320Z,4.89
2023-03-15T08:06:18.364Z,4.91
2023-03-15T08:06:52.483Z,4.97
2023-03-15T08:07:26.235Z,4.99
2023-03-15T08:08:07.369Z,5.06
2023-03-15T08:08:41.512Z,4.93
2023-03-15T08:09:15.168Z,4.98
2023-03-15T08:09:55.341Z,5.07
2023-03-15T08:10:29.526Z,5.15
2023-03-15T08:11:05.710Z,5.02
2023-03-15T08:11:46.346Z,5.13
2023-03-15T08:12:20.539Z,5.10
2023-03-15T08:12:54.138Z,5.10
2023-03-15T08:13:34.362Z,5.18
2023-03-15T08:14:08.506Z,5.09
2023-03-15T08:14:42.151Z,4.99
2023-03-15T08:15:23.366Z,4.83
2023-03-15T08:15:57.488Z,4.90
2023-03-15T08:16:32.153Z,4.95
2023-03-15T08:17:13.328Z,4.84
2023-03-15T08:17:55.486Z,4.94
2023-03-15T08:18:35.534Z,5.00
2023-03-15T08:19:15.436Z,4.97
2023-03-15T08:19:55.335Z,4.87
2023-03-15T08:20:36.544Z,5.06
2023-03-15T08:21:16.332Z,5.05
2023-03-15T08:21:56.464Z,4.94
2023-03-15T08:22:38.457Z,4.97
2023-03-15T08:23:19.450Z,5.18
2023-03-15T08:24:03.593Z,5.21
2023-03-15T08:24:45.685Z,5.14
2023-03-15T08:25:30.330Z,5.15
2023-03-15T08:26:11.437Z,5.24
2023-03-15T08:26:51.395Z,5.13
2023-03-15T08:27:32.436Z,5.23
2023-03-15T08:28:12.347Z,5.26
2023-03-15T08:28:53.451Z,5.03
2023-03-15T08:29:34.352Z,5.07
2023-03-15T08:30:20.878Z,5.23
2023-03-15T08:31:01.324Z,5.22
2023-03-15T08:31:41.743Z,5.28
2023-03-15T08:32:25.326Z,5.13
2023-03-15T08:33:07.101Z,5.30
2023-03-15T08:33:48.333Z,5.34
2023-03-15T08:34:29.414Z,5.42
2023-03-15T08:35:09.354Z,5.31
2023-03-15T08:35:49.428Z,5.31
2023-03-15T08:36:29.472Z,5.47
2023-03-15T08:37:10.425Z,5.39
2023-03-15T08:37:54.328Z,5.44
2023-03-15T08:38:34.414Z,5.32
2023-03-15T08:39:15.337Z,5.37
2023-03-15T08:40:00.964Z,5.45
2023-03-15T08:40:42.356Z,5.44
2023-03-15T08:41:23.410Z,5.42
2023-03-15T08:42:03.309Z,5.64
2023-03-15T08:42:44.430Z,5.70
2023-03-15T08:43:24.284Z,5.66
2023-03-15T08:44:04.452Z,5.63
2023-03-15T08:44:44.321Z,5.67
2023-03-15T08:45:26.456Z,5.88
2023-03-15T08:46:06.378Z,5.79
2023-03-15T08:46:46.493Z,5.96
2023-03-15T08:47:26.298Z,5.89
2023-03-15T08:48:07.445Z,5.94
2023-03-15T08:48:47.301Z,5.78
2023-03-15T08:49:28.383Z,5.80
2023-03-15T08:50:14.318Z,5.95
2023-03-15T08:50:54.446Z,5.94
2023-03-15T08:51:35.378Z,6.01
2023-03-15T08:52:18.381Z,6.03
2023-03-15T08:53:05.304Z,6.04
2023-03-15T08:53:39.715Z,5.81
2023-03-15T08:54:26.293Z,5.94
2023-03-15T08:55:00.376Z,5.88
2023-03-15T08:55:47.320Z,5.95
2023-03-15T08:56:21.401Z,5.75
2023-03-15T08:57:01.315Z,5.85
2023-03-15T08:57:42.953Z,5.92
2023-03-15T08:58:23.313Z,5.86
2023-03-15T08:59:03.395Z,5.63
2023-03-15T08:59:43.303Z,5.75
2023-03-15T09:00:24.530Z,5.80
2023-03-15T09:01:04.298Z,5.84
2023-03-15T09:01:58.310Z,5.87
2023-03-15T09:02:38.377Z,5.80
2023-03-15T09:03:19.233Z,5.73
2023-03-15T09:03:59.326Z,5.95
2023-03-15T09:04:40.517Z,6.07
2023-03-15T09:05:22.329Z,6.04
2023-03-15T09:06:04.397Z,6.21
2023-03-15T09:06:44.273Z,6.32
2023-03-15T09:07:24.363Z,6.24
2023-03-15T09:08:07.366Z,6.24
2023-03-15T09:08:47.384Z,6.17
2023-03-15T09:09:27.256Z,6.20
2023-03-15T09:10:08.819Z,6.13
2023-03-15T09:10:48.293Z,6.11
2023-03-15T09:11:29.401Z,6.05
2023-03-15T09:12:10.292Z,6.20
2023-03-15T09:12:53.972Z,6.23
2023-03-15T09:13:35.298Z,6.17
2023-03-15T09:14:15.419Z,6.26
2023-03-15T09:14:56.262Z,6.43
2023-03-15T09:15:36.396Z,6.29
2023-03-15T09:16:17.284Z,6.36
2023-03-15T09:16:57.463Z,6.40